createdAt,value
2017-12-19T15:43:25.841Z,21.00
2017-12-19T15:45:53.329Z,20.20
2017-12-19T15:48:21.570Z,18.60
2017-12-19T15:50:49.304Z,18.60
2017-12-19T15:53:16.791Z,14.60
2017-12-19T15:55:44.274Z,10.50
2017-12-19T15:58:12.537Z,5.20
2017-12-19T16:00:40.016Z,5.10
2017-12-19T16:03:08.265Z,2.60
2017-12-19T16:05:35.756Z,2.50
2017-12-19T16:08:04.004Z,1.40
2017-12-19T16:10:31.488Z,1.30
2017-12-19T16:12:59.789Z,0.80
2017-12-19T16:15:28.000Z,0.70
2017-12-19T16:17:55.504Z,0.70
2017-12-19T16:20:23.764Z,0.50
2017-12-19T16:22:51.246Z,0.50
2017-12-19T16:25:18.801Z,0.40
2017-12-19T16:27:46.287Z,0.30
2017-12-19T16:30:13.765Z,0.30
2017-12-19T16:32:41.259Z,0.30
2017-12-19T16:35:09.533Z,0.20
2017-12-19T16:37:37.003Z,0.20
2017-12-19T16:40:05.254Z,0.30
2017-12-19T16:42:32.743Z,0.20
2017-12-19T16:45:01.013Z,0.20
2017-12-19T16:47:29.270Z,0.20
2017-12-19T16:49:58.272Z,0.20
2017-12-19T16:52:26.562Z,0.20
2017-12-19T16:54:54.810Z,0.20
2017-12-19T16:57:22.302Z,0.20
2017-12-19T16:59:50.578Z,0.30
2017-12-19T17:02:18.816Z,0.30
2017-12-19T17:04:46.313Z,0.30
2017-12-19T17:07:13.838Z,0.30
2017-12-19T17:09:41.320Z,0.40
2017-12-19T17:12:09.575Z,0.40
2017-12-19T17:14:37.048Z,0.40
2017-12-19T17:17:05.295Z,0.40
2017-12-19T17:19:32.784Z,0.40
2017-12-19T17:22:01.028Z,0.40
2017-12-19T17:24:28.531Z,0.40
2017-12-19T17:26:56.089Z,0.40
2017-12-19T17:29:24.343Z,0.40
2017-12-19T17:31:51.827Z,0.40
2017-12-19T17:34:19.327Z,0.40
2017-12-19T17:36:46.811Z,0.40
2017-12-19T17:39:14.339Z,0.40
2017-12-19T17:41:41.835Z,0.30
2017-12-19T17:44:09.407Z,0.40
2017-12-19T17:46:37.676Z,0.40
2017-12-19T17:49:05.939Z,0.30
2017-12-19T17:51:34.232Z,0.30
2017-12-19T17:54:02.489Z,0.30
2017-12-19T17:56:29.990Z,0.30
2017-12-19T17:58:57.468Z,0.30
2017-12-19T18:01:24.942Z,0.30
2017-12-19T18:03:52.448Z,0.30
2017-12-19T18:06:20.692Z,0.30
2017-12-19T18:08:48.168Z,0.30
2017-12-19T18:11:15.929Z,0.30
2017-12-19T18:13:43.504Z,0.30
2017-12-19T18:16:12.131Z,0.30
2017-12-19T18:18:39.691Z,0.30
2017-12-19T18:21:08.199Z,0.30
2017-12-19T18:23:35.680Z,0.30
2017-12-19T18:26:03.197Z,0.30
2017-12-19T18:28:30.751Z,0.40
2017-12-19T18:30:58.239Z,0.30
2017-12-19T18:33:26.185Z,0.30
2017-12-19T18:35:53.670Z,0.30
2017-12-19T18:38:21.211Z,0.30
2017-12-19T18:40:48.719Z,0.30
2017-12-19T18:43:17.017Z,0.30
2017-12-19T18:45:44.764Z,0.30
2017-12-19T18:48:12.246Z,0.30
2017-12-19T18:50:39.728Z,0.30
2017-12-19T18:53:07.200Z,0.30
2017-12-19T18:55:35.504Z,0.30
2017-12-19T18:58:03.748Z,0.30
2017-12-19T19:00:31.224Z,0.30
2017-12-19T19:02:58.792Z,0.30
2017-12-19T19:05:27.041Z,0.40
2017-12-19T19:07:54.540Z,0.40
2017-12-19T19:10:22.802Z,0.40
2017-12-19T19:12:51.052Z,0.50
2017-12-19T19:15:18.529Z,0.40
2017-12-19T19:17:46.032Z,0.50
2017-12-19T19:20:13.561Z,0.50
2017-12-19T19:22:41.812Z,0.70
2017-12-19T19:25:09.303Z,0.60
2017-12-19T19:27:36.787Z,0.70
2017-12-19T19:30:04.272Z,0.70
2017-12-19T19:32:31.754Z,0.70
2017-12-19T19:34:59.235Z,0.70
2017-12-19T19:37:27.474Z,0.80
2017-12-19T19:39:54.973Z,0.80
2017-12-19T19:42:22.566Z,0.80
2017-12-19T19:44:50.090Z,0.70
2017-12-19T19:47:17.732Z,0.80
2017-12-19T19:49:45.982Z,0.70
2017-12-19T19:52:13.470Z,0.70
2017-12-19T19:54:41.749Z,0.60
2017-12-19T19:57:10.008Z,0.60
2017-12-19T19:59:38.292Z,0.60
2017-12-19T20:02:05.818Z,0.60
2017-12-19T20:04:33.308Z,0.70
2017-12-19T20:07:00.798Z,0.60
2017-12-19T20:09:28.300Z,0.60
2017-12-19T20:11:55.895Z,0.60
2017-12-19T20:14:24.151Z,0.60
2017-12-19T20:16:51.656Z,0.60
2017-12-19T20:19:19.159Z,0.60
2017-12-19T20:21:47.007Z,0.60
2017-12-19T20:24:14.567Z,0.60
2017-12-19T20:26:42.102Z,0.60
2017-12-19T20:29:09.601Z,0.60
2017-12-19T20:31:37.090Z,0.60
2017-12-19T20:34:05.347Z,0.60
2017-12-19T20:36:32.834Z,0.60
2017-12-19T20:39:00.348Z,0.70
2017-12-19T20:41:27.835Z,0.70
2017-12-19T20:43:56.112Z,0.70
2017-12-19T20:46:24.386Z,0.70
2017-12-19T20:48:52.638Z,0.70
2017-12-19T20:51:21.106Z,0.70
2017-12-19T20:53:48.738Z,0.70
2017-12-19T20:56:16.232Z,0.80
2017-12-19T20:58:43.744Z,0.80
2017-12-19T21:01:11.249Z,0.80
2017-12-19T21:03:38.790Z,0.70
2017-12-19T21:06:06.275Z,0.70
2017-12-19T21:08:33.879Z,0.70
2017-12-19T21:11:01.411Z,0.90
2017-12-19T21:13:28.908Z,1.00
2017-12-19T21:15:56.590Z,1.00
2017-12-19T21:18:24.121Z,1.00
2017-12-19T21:20:51.599Z,1.00
2017-12-19T21:23:19.127Z,1.10
2017-12-19T21:25:47.415Z,1.00
2017-12-19T21:28:14.895Z,1.00
2017-12-19T21:30:42.395Z,1.00
2017-12-19T21:33:09.879Z,1.00
2017-12-19T21:35:38.393Z,0.90
2017-12-19T21:38:05.923Z,0.90
2017-12-19T21:40:34.174Z,0.90
2017-12-19T21:43:01.683Z,0.90
2017-12-19T21:45:29.212Z,0.90
2017-12-19T21:47:57.488Z,0.90
2017-12-19T21:50:25.744Z,1.00
2017-12-19T21:52:53.866Z,0.90
2017-12-19T21:55:21.365Z,1.00
2017-12-19T21:57:49.616Z,1.10
2017-12-19T22:00:17.104Z,1.00
2017-12-19T22:02:45.352Z,1.20
2017-12-19T22:05:12.835Z,1.20
2017-12-19T22:07:40.367Z,1.20
2017-12-19T22:10:07.847Z,1.10
2017-12-19T22:12:35.485Z,1.10
2017-12-19T22:15:03.014Z,1.00
2017-12-19T22:17:30.699Z,1.00
2017-12-19T22:19:58.183Z,0.90
2017-12-19T22:22:25.673Z,0.90
2017-12-19T22:24:53.923Z,0.80
2017-12-19T22:27:21.403Z,0.80
2017-12-19T22:29:48.899Z,0.80
2017-12-19T22:32:16.379Z,0.80
2017-12-19T22:34:43.855Z,0.80
2017-12-19T22:37:11.347Z,0.80
2017-12-19T22:39:39.600Z,0.80
2017-12-19T22:42:07.075Z,0.80
2017-12-19T22:44:35.332Z,0.80
2017-12-19T22:47:02.808Z,0.80
2017-12-19T22:49:31.054Z,0.80
2017-12-19T22:51:58.779Z,0.80
2017-12-19T22:54:26.310Z,0.80
2017-12-19T22:56:54.559Z,0.90
2017-12-19T22:59:22.047Z,0.80
2017-12-19T23:01:50.296Z,0.80
2017-12-19T23:04:18.538Z,0.80
2017-12-19T23:06:46.036Z,0.80
2017-12-19T23:09:14.336Z,0.80
2017-12-19T23:11:42.578Z,0.80
2017-12-19T23:14:10.068Z,0.80
2017-12-19T23:16:38.320Z,0.80
2017-12-19T23:19:06.561Z,0.80
2017-12-19T23:21:34.049Z,0.80
2017-12-19T23:24:01.522Z,0.80
2017-12-19T23:26:29.089Z,0.70
2017-12-19T23:28:57.343Z,0.80
2017-12-19T23:31:24.959Z,0.80
2017-12-19T23:33:52.439Z,0.80
2017-12-19T23:36:19.923Z,0.80
2017-12-19T23:38:48.910Z,0.70
2017-12-19T23:41:16.383Z,0.70
2017-12-19T23:43:44.638Z,0.80
2017-12-19T23:46:13.639Z,0.70
2017-12-19T23:48:41.218Z,0.70
2017-12-19T23:51:09.478Z,0.70
2017-12-19T23:53:38.458Z,0.70
2017-12-19T23:56:05.945Z,0.70
2017-12-19T23:58:34.470Z,0.70
